Time;durP1;ratioP1;P1;durP2;ratioP2;P2;SDS_P1;SDS_P2;PMS_P1;PMS_P2;Temp;Humidity;BMP_temperature;BMP_pressure;BME280_temperature;BME280_humidity;BME280_pressure;Samples;Min_cycle;Max_cycle;Signal;HPM_P1;HPM_P2
2024/03/19 00:00:20;;;;;;;13.88;7.28;;;10.50;90.60;;;;;;4980127;28;20037;-76
2024/03/19 00:02:46;;;;;;;13.15;7.05;;;10.50;90.60;;;;;;4979776;28;20064;-76
2024/03/19 00:05:12;;;;;;;15.43;7.00;;;10.50;90.60;;;;;;4984757;28;20057;-75
2024/03/19 00:07:38;;;;;;;14.38;7.50;;;10.40;90.60;;;;;;4978934;28;20061;-76
2024/03/19 00:10:04;;;;;;;15.48;7.05;;;10.40;90.70;;;;;;4976271;28;20064;-76
2024/03/19 00:12:32;;;;;;;13.55;7.45;;;10.30;90.80;;;;;;4980278;28;20565;-73
2024/03/19 00:14:59;;;;;;;12.88;7.35;;;10.20;91.00;;;;;;4977888;28;20117;-73
2024/03/19 00:17:26;;;;;;;13.38;7.20;;;10.20;91.00;;;;;;4976102;28;20844;-77
2024/03/19 00:19:52;;;;;;;13.88;7.78;;;10.10;91.10;;;;;;4976734;28;20130;-74
2024/03/19 00:22:18;;;;;;;14.88;7.22;;;10.20;91.20;;;;;;4979629;28;20078;-78
2024/03/19 00:24:44;;;;;;;14.73;7.40;;;10.10;91.30;;;;;;4994716;28;20088;-77
2024/03/19 00:27:10;;;;;;;15.55;7.32;;;10.10;91.40;;;;;;4980158;28;20062;-76
2024/03/19 00:29:36;;;;;;;12.55;7.18;;;10.10;91.60;;;;;;4968296;28;20042;-78
2024/03/19 00:32:01;;;;;;;13.90;7.30;;;10.10;91.70;;;;;;4976111;28;20030;-77
2024/03/19 00:34:27;;;;;;;12.25;6.70;;;10.10;91.80;;;;;;4980326;28;20035;-73
2024/03/19 00:36:53;;;;;;;15.98;6.80;;;10.10;91.90;;;;;;4979777;28;20062;-77
2024/03/19 00:39:22;;;;;;;15.38;7.80;;;10.10;92.00;;;;;;4976694;28;20097;-74
2024/03/19 00:41:48;;;;;;;16.45;7.32;;;10.10;92.00;;;;;;4977690;28;20049;-76
2024/03/19 00:44:13;;;;;;;16.95;7.53;;;10.20;92.00;;;;;;4974488;28;20058;-78
2024/03/19 00:46:39;;;;;;;13.25;6.97;;;10.20;92.10;;;;;;4978832;28;20033;-75
2024/03/19 00:49:05;;;;;;;14.93;6.97;;;10.30;92.10;;;;;;4975967;28;20045;-74
2024/03/19 00:51:31;;;;;;;17.05;8.48;;;10.30;92.20;;;;;;4995564;28;20467;-76
2024/03/19 00:53:57;;;;;;;15.27;6.72;;;10.40;92.20;;;;;;4978647;28;20031;-75
2024/03/19 00:56:23;;;;;;;13.75;6.28;;;10.50;92.20;;;;;;4978576;28;20046;-74
2024/03/19 00:58:49;;;;;;;15.73;6.30;;;10.50;92.20;;;;;;4976149;28;20073;-75
2024/03/19 01:01:14;;;;;;;13.93;6.90;;;10.60;92.20;;;;;;4976296;28;20061;-73
2024/03/19 01:03:40;;;;;;;15.85;7.38;;;10.60;92.20;;;;;;4982152;28;20046;-79
2024/03/19 01:06:08;;;;;;;13.48;6.47;;;10.60;92.20;;;;;;4980974;28;20054;-75
2024/03/19 01:08:33;;;;;;;17.08;6.72;;;10.60;92.20;;;;;;4981721;28;20121;-74
2024/03/19 01:11:01;;;;;;;11.57;6.80;;;10.60;92.10;;;;;;4983025;28;20133;-76
2024/03/19 01:13:27;;;;;;;12.50;5.68;;;10.70;92.20;;;;;;4975058;28;20037;-74
2024/03/19 01:15:52;;;;;;;13.95;6.03;;;10.70;92.20;;;;;;4977839;28;20052;-75
2024/03/19 01:18:18;;;;;;;13.60;5.50;;;10.70;92.20;;;;;;4979671;28;20025;-73
2024/03/19 01:20:43;;;;;;;15.63;6.00;;;10.80;92.20;;;;;;4978011;28;20027;-72
2024/03/19 01:23:09;;;;;;;17.70;6.78;;;10.80;92.20;;;;;;4980230;28;20018;-77
2024/03/19 01:25:35;;;;;;;13.40;5.35;;;10.80;92.10;;;;;;4979223;28;20058;-74
2024/03/19 01:28:01;;;;;;;17.70;6.05;;;10.80;92.10;;;;;;4977782;28;20048;-77
2024/03/19 01:30:27;;;;;;;14.25;5.20;;;10.90;92.10;;;;;;4978341;28;20447;-77
2024/03/19 01:32:53;;;;;;;14.07;6.53;;;10.90;92.00;;;;;;4985374;28;21174;-76
2024/03/19 01:35:19;;;;;;;14.38;5.50;;;10.90;92.10;;;;;;4983405;28;20035;-73
2024/03/19 01:37:44;;;;;;;11.00;5.30;;;10.90;92.00;;;;;;4980700;28;20055;-74
2024/03/19 01:40:10;;;;;;;14.85;6.05;;;11.00;92.00;;;;;;4983204;28;20026;-74
2024/03/19 01:42:36;;;;;;;10.68;5.22;;;11.00;91.90;;;;;;4981566;28;20046;-75
2024/03/19 01:45:12;;;;;;;12.68;5.38;;;11.00;91.90;;;;;;4983029;28;20034;-76
2024/03/19 01:47:38;;;;;;;17.92;5.85;;;11.00;91.90;;;;;;4977302;28;20078;-73
2024/03/19 01:50:10;;;;;;;15.93;6.35;;;11.00;92.00;;;;;;4988690;28;20026;-75
2024/03/19 01:52:57;;;;;;;16.15;6.65;;;11.00;92.10;;;;;;4979321;28;20046;-77
2024/03/19 01:55:23;;;;;;;14.82;6.15;;;11.00;92.00;;;;;;4986378;28;20096;-78
2024/03/19 01:57:51;;;;;;;13.82;6.32;;;11.10;92.00;;;;;;4980457;28;20042;-77
2024/03/19 02:00:17;;;;;;;15.88;6.60;;;11.10;91.90;;;;;;4981082;28;20418;-75
2024/03/19 02:02:42;;;;;;;14.95;6.63;;;11.10;91.90;;;;;;4974662;28;20047;-76
2024/03/19 02:05:10;;;;;;;17.48;6.65;;;11.10;91.80;;;;;;4977841;28;20049;-75
2024/03/19 02:07:36;;;;;;;18.05;7.28;;;11.10;91.90;;;;;;4981964;28;20724;-73
2024/03/19 02:10:02;;;;;;;19.38;7.28;;;11.10;91.90;;;;;;4983792;28;20034;-74
2024/03/19 02:12:28;;;;;;;14.95;6.82;;;11.10;91.90;;;;;;4986692;28;20033;-76
2024/03/19 02:14:55;;;;;;;11.32;6.47;;;11.10;91.90;;;;;;4977363;28;20038;-74
2024/03/19 02:17:22;;;;;;;18.35;7.18;;;11.10;91.90;;;;;;4983940;28;20038;-74
2024/03/19 02:19:48;;;;;;;15.27;7.13;;;11.10;91.90;;;;;;4998225;28;20057;-74
2024/03/19 02:22:15;;;;;;;21.10;7.53;;;11.10;91.80;;;;;;4978675;28;20069;-74
2024/03/19 02:24:42;;;;;;;14.98;7.00;;;11.10;91.90;;;;;;4976254;28;20439;-74
2024/03/19 02:27:11;;;;;;;14.70;6.20;;;11.10;91.90;;;;;;4984900;28;20597;-73
2024/03/19 02:29:37;;;;;;;14.38;6.55;;;11.10;91.90;;;;;;4984237;28;20023;-76
2024/03/19 02:32:03;;;;;;;14.18;6.38;;;11.10;91.90;;;;;;4978112;28;20049;-76
2024/03/19 02:34:29;;;;;;;16.48;7.18;;;11.10;91.80;;;;;;4983091;28;20439;-74
2024/03/19 02:36:56;;;;;;;12.18;6.18;;;11.10;91.80;;;;;;4982305;28;20043;-73
2024/03/19 02:39:23;;;;;;;14.07;7.10;;;11.10;91.90;;;;;;4980757;28;20109;-76
2024/03/19 02:41:49;;;;;;;17.02;6.75;;;11.10;91.80;;;;;;4982448;28;20482;-74
2024/03/19 02:44:15;;;;;;;13.85;5.80;;;11.10;91.80;;;;;;4976664;28;20046;-73
2024/03/19 02:46:41;;;;;;;12.35;5.30;;;11.10;91.80;;;;;;4980930;28;20471;-76
2024/03/19 02:49:06;;;;;;;11.05;5.53;;;11.10;91.70;;;;;;4981030;28;20027;-78
2024/03/19 02:51:33;;;;;;;13.80;5.88;;;11.10;91.70;;;;;;4980141;28;20050;-74
2024/03/19 02:53:59;;;;;;;17.75;5.68;;;11.10;91.70;;;;;;4979429;28;20041;-77
2024/03/19 02:56:25;;;;;;;13.43;5.57;;;11.10;91.70;;;;;;4979142;28;20141;-73
2024/03/19 02:58:51;;;;;;;12.35;4.72;;;11.10;91.70;;;;;;4983991;28;20105;-77
2024/03/19 03:01:16;;;;;;;14.30;5.30;;;11.10;91.70;;;;;;4979283;28;20038;-74
2024/03/19 03:03:43;;;;;;;13.52;5.45;;;11.10;91.60;;;;;;4981805;28;20824;-73
2024/03/19 03:06:09;;;;;;;13.38;4.78;;;11.10;91.60;;;;;;4978132;28;20116;-74
2024/03/19 03:08:35;;;;;;;10.75;5.07;;;11.10;91.60;;;;;;4986913;28;20628;-74
2024/03/19 03:11:01;;;;;;;11.82;4.95;;;11.10;91.50;;;;;;4984478;28;20104;-74
2024/03/19 03:13:27;;;;;;;9.75;4.22;;;11.10;91.60;;;;;;4983448;28;20035;-76
2024/03/19 03:15:53;;;;;;;10.30;4.53;;;11.10;91.50;;;;;;4976721;28;20306;-74
2024/03/19 03:18:19;;;;;;;14.48;5.30;;;11.10;91.50;;;;;;4980479;28;20037;-73
2024/03/19 03:20:45;;;;;;;12.43;4.43;;;11.20;91.40;;;;;;4992413;28;20018;-74
2024/03/19 03:23:13;;;;;;;12.63;5.00;;;11.10;91.40;;;;;;4980223;28;20388;-75
2024/03/19 03:25:39;;;;;;;13.52;4.57;;;11.10;91.30;;;;;;4978747;28;20022;-73
2024/03/19 03:28:05;;;;;;;9.57;4.18;;;11.20;91.20;;;;;;4980385;28;20031;-75
2024/03/19 03:30:30;;;;;;;9.18;4.68;;;11.20;91.30;;;;;;4980974;28;20366;-75
2024/03/19 03:32:56;;;;;;;13.88;4.75;;;11.10;91.20;;;;;;4981327;28;20121;-78
2024/03/19 03:35:22;;;;;;;10.60;4.88;;;11.20;91.20;;;;;;4984795;28;20026;-73
2024/03/19 03:37:48;;;;;;;12.15;4.50;;;11.20;91.20;;;;;;5002200;28;20848;-76
2024/03/19 03:40:14;;;;;;;10.25;4.35;;;11.10;91.20;;;;;;4986612;28;20022;-75
2024/03/19 03:42:50;;;;;;;11.35;4.28;;;11.20;91.20;;;;;;4991004;28;20058;-77
2024/03/19 03:45:20;;;;;;;9.82;3.83;;;11.20;91.20;;;;;;4977918;28;20117;-74
2024/03/19 03:47:47;;;;;;;12.35;4.90;;;11.10;91.10;;;;;;4981272;28;20034;-72
2024/03/19 03:50:14;;;;;;;15.82;4.43;;;11.20;91.00;;;;;;4978557;28;20097;-76
2024/03/19 03:52:40;;;;;;;9.57;4.20;;;11.20;91.10;;;;;;4977595;28;20038;-73
2024/03/19 03:55:06;;;;;;;10.88;4.65;;;11.20;91.10;;;;;;4981380;28;20080;-75
2024/03/19 03:57:33;;;;;;;11.13;4.50;;;11.20;91.10;;;;;;4971719;28;20034;-75
2024/03/19 03:59:59;;;;;;;12.32;4.53;;;11.10;91.00;;;;;;4977319;28;20034;-74
2024/03/19 04:02:25;;;;;;;12.15;4.43;;;11.20;91.00;;;;;;4981748;28;20034;-75
2024/03/19 04:04:54;;;;;;;12.35;4.53;;;11.20;90.90;;;;;;4981838;28;20483;-72
2024/03/19 04:07:19;;;;;;;12.60;4.55;;;11.20;90.90;;;;;;4977699;28;20038;-74
2024/03/19 04:09:45;;;;;;;11.98;4.80;;;11.20;90.90;;;;;;4988674;28;20030;-73
2024/03/19 04:12:11;;;;;;;12.85;4.30;;;11.20;91.00;;;;;;4978126;28;20084;-76
2024/03/19 04:14:37;;;;;;;9.95;4.20;;;11.20;91.00;;;;;;4978826;28;20034;-74
2024/03/19 04:17:03;;;;;;;9.88;4.13;;;11.20;90.90;;;;;;4975955;28;20045;-75
2024/03/19 04:19:29;;;;;;;10.10;4.15;;;11.30;90.80;;;;;;4985539;28;20036;-74
2024/03/19 04:21:54;;;;;;;15.63;5.05;;;11.20;90.80;;;;;;4980372;28;20034;-73
2024/03/19 04:24:21;;;;;;;12.32;4.30;;;11.20;90.80;;;;;;4985406;28;20108;-75
2024/03/19 04:26:47;;;;;;;13.40;4.50;;;11.30;90.70;;;;;;4983664;28;20490;-76
2024/03/19 04:29:16;;;;;;;9.10;3.38;;;11.30;90.70;;;;;;4986383;28;20109;-76
2024/03/19 04:31:42;;;;;;;10.45;4.10;;;11.20;90.80;;;;;;4979458;28;20092;-74
2024/03/19 04:34:09;;;;;;;10.23;4.22;;;11.20;90.90;;;;;;4981707;28;20036;-75
2024/03/19 04:36:35;;;;;;;11.48;4.28;;;11.30;90.90;;;;;;4973715;28;20038;-74
2024/03/19 04:39:10;;;;;;;8.60;3.97;;;11.30;90.80;;;;;;4981688;28;20038;-74
2024/03/19 04:41:39;;;;;;;;;;;11.30;90.90;;;;;;4984341;28;20046;-73
2024/03/19 04:44:05;;;;;;;11.43;3.90;;;11.20;90.90;;;;;;4979274;28;19925;-76
2024/03/19 04:46:31;;;;;;;11.13;4.07;;;11.30;90.90;;;;;;4979107;28;20097;-76
2024/03/19 04:48:57;;;;;;;10.65;4.38;;;11.20;90.90;;;;;;4977871;28;20719;-73
2024/03/19 04:51:23;;;;;;;9.63;4.38;;;11.30;90.90;;;;;;4985357;28;20478;-74
2024/03/19 04:53:49;;;;;;;9.98;3.80;;;11.30;91.00;;;;;;4978528;28;20109;-77
2024/03/19 04:56:15;;;;;;;11.70;4.55;;;11.30;91.00;;;;;;4972548;28;20085;-74
2024/03/19 04:58:40;;;;;;;9.82;3.80;;;11.20;90.90;;;;;;4978632;28;20109;-73
2024/03/19 05:01:07;;;;;;;9.70;4.32;;;11.20;91.00;;;;;;4977599;28;20494;-73
2024/03/19 05:03:32;;;;;;;9.70;4.13;;;11.30;91.00;;;;;;4978371;28;20072;-77
2024/03/19 05:05:58;;;;;;;15.02;5.03;;;11.20;91.00;;;;;;4977561;28;20414;-77
2024/03/19 05:08:24;;;;;;;11.98;4.95;;;11.30;90.90;;;;;;4982332;28;20692;-78
2024/03/19 05:10:49;;;;;;;11.30;5.07;;;11.30;90.70;;;;;;4978129;28;20092;-73
2024/03/19 05:13:15;;;;;;;12.38;4.95;;;11.30;90.60;;;;;;4982798;28;20070;-77
2024/03/19 05:15:41;;;;;;;10.70;5.10;;;11.30;90.50;;;;;;4982761;28;20030;-73
2024/03/19 05:18:07;;;;;;;15.90;5.13;;;11.30;90.50;;;;;;4985952;28;20031;-74
2024/03/19 05:20:34;;;;;;;14.38;5.32;;;11.20;90.60;;;;;;4980628;28;20035;-78
2024/03/19 05:23:00;;;;;;;13.95;5.78;;;11.20;90.60;;;;;;4980974;28;20081;-79
2024/03/19 05:25:26;;;;;;;10.73;5.10;;;11.20;90.60;;;;;;4986515;28;20041;-78
2024/03/19 05:27:52;;;;;;;12.68;5.80;;;11.20;90.60;;;;;;4981642;28;20141;-73
2024/03/19 05:30:19;;;;;;;13.70;5.97;;;11.20;90.60;;;;;;4981874;28;20031;-74
2024/03/19 05:32:44;;;;;;;18.48;6.85;;;11.20;90.70;;;;;;4974960;28;20514;-76
2024/03/19 05:35:10;;;;;;;14.88;7.55;;;11.10;90.50;;;;;;4983236;28;20046;-77
2024/03/19 05:37:37;;;;;;;14.57;6.68;;;11.10;90.60;;;;;;4974033;28;20086;-71
2024/03/19 05:40:06;;;;;;;13.13;6.15;;;11.10;90.60;;;;;;4979765;28;20034;-78
2024/03/19 05:42:32;;;;;;;13.65;6.47;;;11.10;90.70;;;;;;4980570;28;20118;-74
2024/03/19 05:44:58;;;;;;;14.85;6.85;;;11.10;90.70;;;;;;4980826;28;20506;-75
2024/03/19 05:47:24;;;;;;;14.95;7.32;;;11.10;90.70;;;;;;4987849;28;20042;-77
2024/03/19 05:49:53;;;;;;;14.50;6.95;;;11.10;90.70;;;;;;4977867;28;20037;-78
2024/03/19 05:52:20;;;;;;;16.40;7.20;;;11.10;90.70;;;;;;4980190;28;20042;-75
2024/03/19 05:54:46;;;;;;;17.20;7.35;;;11.10;90.80;;;;;;4976730;28;20118;-76
2024/03/19 05:57:11;;;;;;;14.27;6.70;;;11.10;90.80;;;;;;4976532;28;20820;-74
2024/03/19 05:59:37;;;;;;;15.13;7.38;;;11.10;90.80;;;;;;4981144;28;20030;-71
2024/03/19 06:02:06;;;;;;;15.30;6.80;;;11.10;90.80;;;;;;4977248;28;20046;-74
2024/03/19 06:04:32;;;;;;;17.50;6.88;;;11.10;90.70;;;;;;4974771;28;20048;-73
2024/03/19 06:06:58;;;;;;;17.45;7.22;;;11.10;90.60;;;;;;4980233;28;20039;-74
2024/03/19 06:09:24;;;;;;;18.08;7.95;;;11.10;90.60;;;;;;4978965;28;20403;-74
2024/03/19 06:11:49;;;;;;;16.75;7.45;;;11.10;90.60;;;;;;4975335;28;20061;-76
2024/03/19 06:14:15;;;;;;;15.63;7.43;;;11.10;90.40;;;;;;4967659;28;20023;-76
2024/03/19 06:16:41;;;;;;;17.50;7.20;;;11.20;90.40;;;;;;4972229;28;20073;-72
2024/03/19 06:19:06;;;;;;;14.38;7.53;;;11.20;90.30;;;;;;4974369;28;20430;-75
2024/03/19 06:21:32;;;;;;;17.05;7.53;;;11.20;90.30;;;;;;4973782;28;20084;-73
2024/03/19 06:24:01;;;;;;;14.75;6.88;;;11.10;90.30;;;;;;4977288;28;20561;-78
2024/03/19 06:26:27;;;;;;;19.17;7.93;;;11.20;90.20;;;;;;4976431;28;20306;-72
2024/03/19 06:28:56;;;;;;;15.95;6.90;;;11.20;90.20;;;;;;4978536;28;20109;-76
2024/03/19 06:31:22;;;;;;;14.95;6.05;;;11.10;90.20;;;;;;4977823;28;20363;-72
2024/03/19 06:33:48;;;;;;;16.05;6.28;;;11.10;90.20;;;;;;4975690;28;20120;-72
2024/03/19 06:36:14;;;;;;;16.00;6.28;;;11.10;90.20;;;;;;4975220;28;20038;-73
2024/03/19 06:38:39;;;;;;;17.52;7.03;;;11.10;90.30;;;;;;4978465;28;20034;-74
2024/03/19 06:41:12;;;;;;;16.90;6.85;;;11.10;90.30;;;;;;4973751;28;20046;-76
2024/03/19 06:43:39;;;;;;;15.25;6.45;;;11.10;90.30;;;;;;4976465;28;20054;-77
2024/03/19 06:46:04;;;;;;;20.40;7.28;;;11.10;90.40;;;;;;4962507;28;20600;-75
2024/03/19 06:48:30;;;;;;;17.58;6.95;;;11.10;90.30;;;;;;4972254;28;20156;-75
2024/03/19 06:50:56;;;;;;;18.45;7.10;;;11.10;90.30;;;;;;4989245;28;20069;-76
2024/03/19 06:53:22;;;;;;;15.60;6.53;;;11.30;90.40;;;;;;4978437;28;20065;-73
2024/03/19 06:55:48;;;;;;;13.70;5.75;;;11.30;90.20;;;;;;4978678;28;20522;-77
2024/03/19 06:58:14;;;;;;;14.05;6.20;;;11.40;90.00;;;;;;4979695;28;20037;-73
2024/03/19 07:00:40;;;;;;;15.82;6.60;;;11.50;89.90;;;;;;4977877;28;20035;-73
2024/03/19 07:03:26;;;;;;;17.42;6.85;;;11.50;89.80;;;;;;4982146;28;20023;-80
2024/03/19 07:06:18;;;;;;;17.33;7.43;;;11.60;89.80;;;;;;4949410;28;20052;-75
2024/03/19 07:08:47;;;;;;;14.05;6.65;;;11.60;89.60;;;;;;4983641;28;20042;-73
2024/03/19 07:11:13;;;;;;;15.55;6.72;;;11.70;89.70;;;;;;4967225;28;20496;-75
2024/03/19 07:13:39;;;;;;;16.42;7.20;;;11.80;89.70;;;;;;4978252;28;20033;-75
2024/03/19 07:16:08;;;;;;;21.13;8.77;;;11.90;89.50;;;;;;4978786;28;20046;-74
2024/03/19 07:18:34;;;;;;;13.23;7.05;;;12.00;89.50;;;;;;4993748;28;20033;-75
2024/03/19 07:21:00;;;;;;;15.55;7.50;;;12.10;89.40;;;;;;4993236;28;21337;-79
2024/03/19 07:23:28;;;;;;;15.13;7.47;;;12.20;89.20;;;;;;4984585;28;20724;-75
2024/03/19 07:25:55;;;;;;;16.67;6.68;;;12.30;88.90;;;;;;4981119;28;20045;-76
2024/03/19 07:28:20;;;;;;;15.75;6.40;;;12.30;88.30;;;;;;4979153;28;20175;-75
2024/03/19 07:30:46;;;;;;;15.23;6.82;;;12.40;88.10;;;;;;4979722;28;20125;-74
2024/03/19 07:33:15;;;;;;;14.75;6.25;;;12.40;88.00;;;;;;4982972;28;20034;-74
2024/03/19 07:35:41;;;;;;;15.27;5.97;;;12.40;87.80;;;;;;4984501;28;20038;-73
2024/03/19 07:38:09;;;;;;;15.35;5.20;;;12.50;87.50;;;;;;4983191;28;20436;-73
2024/03/19 07:40:35;;;;;;;13.25;5.97;;;12.60;87.10;;;;;;4975007;28;20030;-77
2024/03/19 07:43:03;;;;;;;21.95;6.75;;;12.60;86.60;;;;;;4977231;28;20058;-74
2024/03/19 07:45:28;;;;;;;13.95;5.10;;;12.70;86.50;;;;;;4978272;28;20038;-73
2024/03/19 07:48:04;;;;;;;13.90;6.00;;;12.80;86.00;;;;;;4982047;28;20370;-82
2024/03/19 07:50:33;;;;;;;16.05;5.63;;;12.80;85.60;;;;;;4974977;28;20033;-75
2024/03/19 07:52:59;;;;;;;11.48;5.00;;;12.90;85.50;;;;;;4983858;28;20763;-72
2024/03/19 07:55:25;;;;;;;13.70;5.68;;;13.00;85.30;;;;;;4974358;28;20034;-74
2024/03/19 07:57:51;;;;;;;16.98;6.15;;;13.00;85.00;;;;;;4979868;28;20548;-75
2024/03/19 08:00:20;;;;;;;13.52;5.55;;;13.00;85.00;;;;;;4978089;28;20153;-74
2024/03/19 08:02:45;;;;;;;14.45;5.00;;;13.00;84.80;;;;;;4978859;28;20630;-74
2024/03/19 08:05:12;;;;;;;14.65;5.45;;;13.10;84.70;;;;;;4977096;28;20105;-76
2024/03/19 08:07:40;;;;;;;16.33;5.38;;;13.10;84.50;;;;;;4981294;28;20517;-77
2024/03/19 08:10:06;;;;;;;15.98;6.75;;;13.20;84.20;;;;;;4981156;28;20038;-73
2024/03/19 08:12:33;;;;;;;12.32;5.97;;;13.20;84.10;;;;;;4969265;28;20139;-77
2024/03/19 08:15:03;;;;;;;14.43;6.00;;;13.20;84.40;;;;;;4979809;28;20471;-75
2024/03/19 08:17:30;;;;;;;14.13;5.80;;;13.20;84.30;;;;;;4974097;28;20042;-74
2024/03/19 08:19:57;;;;;;;16.80;6.25;;;13.30;84.10;;;;;;4980510;28;20402;-75
2024/03/19 08:22:23;;;;;;;14.48;5.82;;;13.50;84.10;;;;;;4977759;28;20054;-73
2024/03/19 08:24:49;;;;;;;12.98;5.60;;;13.60;83.70;;;;;;4981212;28;20047;-75
2024/03/19 08:27:15;;;;;;;17.05;6.13;;;13.60;83.50;;;;;;4979897;28;20041;-78
2024/03/19 08:29:42;;;;;;;14.25;6.32;;;13.80;83.50;;;;;;4979390;28;20407;-74
2024/03/19 08:32:11;;;;;;;15.55;6.28;;;13.90;83.00;;;;;;4978073;28;20125;-72
2024/03/19 08:34:37;;;;;;;15.23;6.53;;;14.10;83.00;;;;;;4979415;28;20119;-75
2024/03/19 08:37:05;;;;;;;15.05;6.18;;;14.20;82.40;;;;;;4977995;28;20140;-74
2024/03/19 08:39:34;;;;;;;17.58;6.50;;;14.30;82.00;;;;;;4978928;28;20043;-74
2024/03/19 08:42:00;;;;;;;15.07;6.32;;;14.40;81.50;;;;;;4977955;28;20130;-75
2024/03/19 08:44:26;;;;;;;16.83;6.68;;;14.50;81.30;;;;;;4978024;28;20141;-73
2024/03/19 08:46:54;;;;;;;12.48;6.20;;;14.50;81.20;;;;;;4979759;28;20073;-72
2024/03/19 08:49:22;;;;;;;15.57;6.18;;;14.50;81.10;;;;;;4982884;28;20065;-75
2024/03/19 08:51:48;;;;;;;15.25;5.72;;;14.50;81.20;;;;;;4997900;28;20042;-73
2024/03/19 08:54:14;;;;;;;12.82;5.57;;;14.60;81.00;;;;;;4983663;28;20348;-74
2024/03/19 08:56:40;;;;;;;12.32;5.72;;;14.80;81.10;;;;;;4983107;28;20050;-77
2024/03/19 08:59:06;;;;;;;12.98;5.82;;;15.00;80.50;;;;;;4982091;28;20037;-74
2024/03/19 09:01:31;;;;;;;18.52;5.65;;;15.20;80.10;;;;;;4982106;28;20380;-73
2024/03/19 09:03:59;;;;;;;15.30;7.18;;;15.50;79.00;;;;;;4988404;28;20109;-76
2024/03/19 09:06:24;;;;;;;16.92;6.03;;;15.70;78.40;;;;;;4983997;28;20037;-78
2024/03/19 09:08:50;;;;;;;12.80;5.57;;;15.80;77.90;;;;;;4982250;28;20026;-73
2024/03/19 09:11:16;;;;;;;13.77;6.15;;;16.00;78.30;;;;;;4984219;28;20484;-76
2024/03/19 09:13:42;;;;;;;15.73;6.63;;;16.10;77.10;;;;;;4983510;28;20130;-73
2024/03/19 09:16:09;;;;;;;11.80;5.55;;;16.00;76.80;;;;;;4978558;28;20108;-73
2024/03/19 09:18:34;;;;;;;14.35;5.97;;;15.90;77.50;;;;;;4977733;28;20085;-75
2024/03/19 09:21:00;;;;;;;13.93;5.57;;;16.10;77.00;;;;;;4995104;28;20134;-72
2024/03/19 09:23:26;;;;;;;13.20;4.90;;;16.30;77.40;;;;;;4979213;28;20061;-72
2024/03/19 09:25:55;;;;;;;16.48;5.75;;;16.60;76.50;;;;;;4980162;28;20093;-71
2024/03/19 09:28:20;;;;;;;14.60;5.72;;;16.80;75.40;;;;;;4980177;28;20073;-73
2024/03/19 09:30:47;;;;;;;12.65;5.68;;;16.80;74.60;;;;;;4982369;28;20399;-77
2024/03/19 09:33:14;;;;;;;15.30;5.50;;;16.90;74.60;;;;;;4981302;28;20089;-75
2024/03/19 09:35:39;;;;;;;13.23;6.05;;;16.60;75.20;;;;;;4996697;28;20034;-76
2024/03/19 09:38:05;;;;;;;13.60;6.10;;;16.80;75.10;;;;;;4983302;28;20108;-74
2024/03/19 09:40:36;;;;;;;16.60;6.07;;;16.90;74.90;;;;;;4979246;28;20033;-77
2024/03/19 09:43:04;;;;;;;15.60;6.00;;;17.00;74.70;;;;;;4982508;28;20050;-76
2024/03/19 09:45:32;;;;;;;15.88;5.72;;;17.00;74.10;;;;;;4982094;28;20026;-77
2024/03/19 09:47:59;;;;;;;13.25;5.60;;;17.00;74.10;;;;;;4978635;28;20077;-74
2024/03/19 09:50:25;;;;;;;11.45;5.32;;;17.00;74.20;;;;;;4983397;28;20026;-75
2024/03/19 09:52:53;;;;;;;12.40;5.72;;;17.00;74.90;;;;;;4981324;28;20048;-80
2024/03/19 09:55:19;;;;;;;16.83;5.55;;;17.00;74.50;;;;;;4979064;28;20057;-76
2024/03/19 09:57:46;;;;;;;11.30;5.60;;;17.10;73.30;;;;;;4975465;28;20049;-74
2024/03/19 10:00:24;;;;;;;12.40;5.90;;;17.20;73.20;;;;;;4978951;28;20026;-74
2024/03/19 10:02:53;;;;;;;12.98;5.75;;;17.30;73.70;;;;;;4975944;28;20134;-74
2024/03/19 10:05:20;;;;;;;13.95;5.45;;;17.50;72.90;;;;;;4979260;28;20112;-73
2024/03/19 10:07:48;;;;;;;16.98;6.38;;;17.60;72.70;;;;;;4983587;28;20049;-73
2024/03/19 10:10:18;;;;;;;12.23;5.72;;;17.80;72.50;;;;;;4980391;28;20133;-74
2024/03/19 10:12:48;;;;;;;13.02;5.85;;;17.90;72.50;;;;;;4997149;28;20049;-74
2024/03/19 10:15:22;;;;;;;14.30;6.13;;;18.00;72.00;;;;;;4977826;28;20031;-75
2024/03/19 10:17:49;;;;;;;15.07;5.30;;;18.10;70.80;;;;;;4981800;28;20034;-75
2024/03/19 10:20:16;;;;;;;20.02;7.15;;;18.10;71.00;;;;;;4981714;28;20073;-78
2024/03/19 10:22:47;;;;;;;13.50;6.05;;;18.20;71.20;;;;;;4975268;28;20039;-76
2024/03/19 10:25:14;;;;;;;14.75;5.82;;;18.20;71.10;;;;;;4980591;28;20122;-75
2024/03/19 10:27:49;;;;;;;10.57;5.18;;;18.10;70.60;;;;;;4974177;28;20062;-74
2024/03/19 10:30:16;;;;;;;15.23;5.38;;;18.30;69.50;;;;;;4979213;28;20378;-77
2024/03/19 10:32:44;;;;;;;14.35;6.10;;;18.10;70.60;;;;;;4978519;28;20505;-75
2024/03/19 10:35:21;;;;;;;14.43;6.45;;;18.30;70.80;;;;;;4977365;28;20035;-74
2024/03/19 10:37:51;;;;;;;14.65;5.75;;;18.40;70.10;;;;;;4980474;28;20050;-73
2024/03/19 10:40:20;;;;;;;9.70;4.30;;;18.60;70.40;;;;;;4980041;28;20022;-74
2024/03/19 10:42:51;;;;;;;9.85;4.05;;;18.80;68.90;;;;;;4966629;28;20050;-77
2024/03/19 10:45:21;;;;;;;12.32;3.60;;;19.00;68.50;;;;;;4991674;28;20038;-73
2024/03/19 10:47:49;;;;;;;8.30;2.80;;;19.10;67.00;;;;;;4978079;28;20479;-74
2024/03/19 10:50:17;;;;;;;7.55;1.98;;;19.10;64.70;;;;;;4981642;28;20038;-74
2024/03/19 10:52:50;;;;;;;5.28;1.80;;;18.60;63.30;;;;;;4977567;28;20058;-76
2024/03/19 10:55:19;;;;;;;9.48;2.65;;;18.30;63.40;;;;;;4983492;28;20038;-74
2024/03/19 10:57:48;;;;;;;7.20;2.10;;;18.10;64.70;;;;;;4978839;28;20377;-75
2024/03/19 11:00:27;;;;;;;7.22;2.65;;;17.90;64.90;;;;;;4980422;28;20105;-75
2024/03/19 11:02:58;;;;;;;9.52;2.97;;;17.90;65.40;;;;;;4974952;28;20637;-72
2024/03/19 11:05:25;;;;;;;8.55;2.00;;;17.90;65.70;;;;;;4999284;28;20026;-76
2024/03/19 11:07:52;;;;;;;6.97;2.00;;;17.80;65.70;;;;;;4980888;28;20034;-72
2024/03/19 11:10:32;;;;;;;7.07;1.85;;;17.70;66.00;;;;;;4981834;28;20117;-73
2024/03/19 11:13:03;;;;;;;5.72;2.42;;;17.90;65.20;;;;;;4979070;28;20045;-74
2024/03/19 11:15:32;;;;;;;8.88;2.30;;;18.20;65.30;;;;;;4998585;28;20102;-76
2024/03/19 11:18:22;;;;;;;8.07;2.90;;;18.20;64.10;;;;;;4956683;28;20038;-76
2024/03/19 11:20:52;;;;;;;7.50;2.47;;;17.60;65.90;;;;;;4985262;28;20069;-74
2024/03/19 11:23:23;;;;;;;7.35;1.95;;;17.70;66.80;;;;;;4985438;28;20035;-78
2024/03/19 11:25:50;;;;;;;8.68;3.03;;;17.70;66.30;;;;;;5006748;28;20125;-75
2024/03/19 11:28:22;;;;;;;7.57;2.55;;;17.60;66.20;;;;;;4979008;28;20466;-74
2024/03/19 11:31:06;;;;;;;6.40;2.50;;;17.60;68.00;;;;;;4971981;28;20073;-75
2024/03/19 11:33:37;;;;;;;9.93;2.47;;;17.60;68.30;;;;;;4978537;28;20118;-75
2024/03/19 11:36:03;;;;;;;7.82;2.35;;;17.40;67.20;;;;;;4980644;28;20117;-75
2024/03/19 11:38:31;;;;;;;6.72;2.35;;;17.10;67.50;;;;;;4980867;28;20026;-74
2024/03/19 11:41:00;;;;;;;7.10;2.22;;;17.00;67.80;;;;;;4980648;28;20102;-74
2024/03/19 11:43:28;;;;;;;7.28;2.47;;;17.30;67.70;;;;;;4974330;28;20042;-79
2024/03/19 11:45:55;;;;;;;8.57;2.70;;;17.50;67.50;;;;;;4993201;28;20042;-78
2024/03/19 11:48:22;;;;;;;7.88;3.20;;;17.60;68.20;;;;;;4977149;28;20327;-77
2024/03/19 11:50:58;;;;;;;6.85;2.70;;;17.60;69.60;;;;;;4977727;28;20046;-75
2024/03/19 11:53:25;;;;;;;8.75;2.60;;;17.60;68.80;;;;;;4978334;28;20073;-74
2024/03/19 11:55:53;;;;;;;7.32;3.00;;;17.50;69.20;;;;;;4977606;28;20050;-77
2024/03/19 11:58:19;;;;;;;5.63;2.33;;;17.40;69.60;;;;;;4975144;28;20034;-74
2024/03/19 12:00:45;;;;;;;9.05;2.75;;;17.30;69.40;;;;;;4975330;28;20218;-74
2024/03/19 12:03:15;;;;;;;5.32;2.00;;;17.20;68.90;;;;;;4978287;28;20026;-77
2024/03/19 12:06:00;;;;;;;6.35;2.17;;;17.40;68.70;;;;;;4974946;28;20360;-79
2024/03/19 12:08:26;;;;;;;7.30;2.30;;;17.60;67.70;;;;;;4972869;28;20476;-78
2024/03/19 12:11:02;;;;;;;5.90;2.15;;;17.60;68.30;;;;;;4983457;28;20038;-77
2024/03/19 12:13:27;;;;;;;11.68;2.60;;;17.40;68.70;;;;;;4975802;28;20030;-74
2024/03/19 12:15:53;;;;;;;7.68;2.10;;;17.80;67.50;;;;;;4977395;28;20076;-77
2024/03/19 12:18:20;;;;;;;6.80;2.30;;;17.80;66.90;;;;;;4975016;28;20318;-74
2024/03/19 12:20:50;;;;;;;7.22;2.35;;;17.60;68.20;;;;;;4978680;28;20038;-74
2024/03/19 12:23:16;;;;;;;5.38;2.00;;;17.30;68.70;;;;;;4976972;28;20031;-76
2024/03/19 12:25:43;;;;;;;7.65;2.10;;;17.60;68.90;;;;;;4980122;28;20273;-76
2024/03/19 12:28:15;;;;;;;10.07;2.53;;;17.90;67.90;;;;;;4974734;28;20475;-77
2024/03/19 12:30:40;;;;;;;10.30;2.60;;;18.10;67.20;;;;;;4977403;28;20502;-76
2024/03/19 12:33:27;;;;;;;7.75;2.72;;;18.10;67.30;;;;;;4977082;28;20030;-75
2024/03/19 12:35:53;;;;;;;6.65;2.10;;;18.30;67.00;;;;;;4977954;28;20349;-76
2024/03/19 12:38:19;;;;;;;8.05;2.60;;;18.60;66.00;;;;;;4977506;28;20805;-75